sensor_id;sensor_type;location;lat;lon;timestamp;pressure;altitude;pressure_sealevel;temperature;humidity
47738;BME280;33502;47.182;27.506;2023-02-02T00:01:07;99697.97;;;-0.03;100.00
47738;BME280;33502;47.182;27.506;2023-02-02T00:03:33;99696.03;;;0.21;100.00
47738;BME280;33502;47.182;27.506;2023-02-02T00:05:58;99688.72;;;0.51;100.00
47738;BME280;33502;47.182;27.506;2023-02-02T00:08:24;99686.94;;;0.57;100.00
47738;BME280;33502;47.182;27.506;2023-02-02T00:10:49;99676.53;;;0.54;100.00
47738;BME280;33502;47.182;27.506;2023-02-02T00:13:15;99680.88;;;0.55;100.00
47738;BME280;33502;47.182;27.506;2023-02-02T00:15:41;99677.38;;;0.56;100.00
47738;BME280;33502;47.182;27.506;2023-02-02T00:18:06;99673.91;;;0.57;100.00
47738;BME280;33502;47.182;27.506;2023-02-02T00:20:32;99666.03;;;0.61;100.00
47738;BME280;33502;47.182;27.506;2023-02-02T00:22:59;99659.94;;;0.63;100.00
47738;BME280;33502;47.182;27.506;2023-02-02T00:25:25;99660.69;;;0.71;100.00
47738;BME280;33502;47.182;27.506;2023-02-02T00:27:50;99651.84;;;0.82;100.00
47738;BME280;33502;47.182;27.506;2023-02-02T00:30:16;99652.66;;;0.88;100.00
47738;BME280;33502;47.182;27.506;2023-02-02T00:32:42;99640.38;;;0.93;100.00
47738;BME280;33502;47.182;27.506;2023-02-02T00:35:08;99643.81;;;0.97;100.00
47738;BME280;33502;47.182;27.506;2023-02-02T00:37:34;99649.88;;;0.99;100.00
47738;BME280;33502;47.182;27.506;2023-02-02T00:40:00;99642.03;;;1.01;100.00
47738;BME280;33502;47.182;27.506;2023-02-02T00:42:26;99641.22;;;0.97;100.00
47738;BME280;33502;47.182;27.506;2023-02-02T00:44:52;99636.06;;;0.92;100.00
47738;BME280;33502;47.182;27.506;2023-02-02T00:47:35;99631.78;;;0.88;100.00
47738;BME280;33502;47.182;27.506;2023-02-02T00:50:01;99623.13;;;0.86;100.00
47738;BME280;33502;47.182;27.506;2023-02-02T00:52:27;99619.72;;;0.81;100.00
47738;BME280;33502;47.182;27.506;2023-02-02T00:54:53;99618.16;;;0.71;100.00
47738;BME280;33502;47.182;27.506;2023-02-02T00:57:18;99610.44;;;0.62;100.00
47738;BME280;33502;47.182;27.506;2023-02-02T00:59:44;99614.00;;;0.54;100.00
47738;BME280;33502;47.182;27.506;2023-02-02T01:02:10;99607.16;;;0.46;100.00
47738;BME280;33502;47.182;27.506;2023-02-02T01:04:35;99607.22;;;0.43;100.00
47738;BME280;33502;47.182;27.506;2023-02-02T01:07:01;99604.63;;;0.41;100.00
47738;BME280;33502;47.182;27.506;2023-02-02T01:09:28;99595.97;;;0.41;100.00
47738;BME280;33502;47.182;27.506;2023-02-02T01:11:53;99596.84;;;0.39;100.00
47738;BME280;33502;47.182;27.506;2023-02-02T01:14:19;99589.84;;;0.45;100.00
47738;BME280;33502;47.182;27.506;2023-02-02T01:16:44;99593.16;;;0.57;100.00
47738;BME280;33502;47.182;27.506;2023-02-02T01:19:13;99594.75;;;0.65;100.00
47738;BME280;33502;47.182;27.506;2023-02-02T01:21:39;99600.78;;;0.70;100.00
47738;BME280;33502;47.182;27.506;2023-02-02T01:24:05;99604.19;;;0.75;100.00
47738;BME280;33502;47.182;27.506;2023-02-02T01:26:30;99603.25;;;0.81;100.00
47738;BME280;33502;47.182;27.506;2023-02-02T01:28:56;99601.44;;;0.84;100.00
47738;BME280;33502;47.182;27.506;2023-02-02T01:31:22;99604.91;;;0.85;100.00
47738;BME280;33502;47.182;27.506;2023-02-02T01:33:48;99608.44;;;0.81;100.00
47738;BME280;33502;47.182;27.506;2023-02-02T01:36:15;99594.63;;;0.75;100.00
47738;BME280;33502;47.182;27.506;2023-02-02T01:38:41;99593.81;;;0.69;100.00
47738;BME280;33502;47.182;27.506;2023-02-02T01:41:07;99591.31;;;0.63;100.00
47738;BME280;33502;47.182;27.506;2023-02-02T01:46:11;99591.59;;;0.44;100.00
47738;BME280;33502;47.182;27.506;2023-02-02T01:48:37;99592.53;;;0.37;100.00
47738;BME280;33502;47.182;27.506;2023-02-02T01:51:06;99585.69;;;0.28;100.00
47738;BME280;33502;47.182;27.506;2023-02-02T01:53:33;99585.78;;;0.22;100.00
47738;BME280;33502;47.182;27.506;2023-02-02T01:55:59;99592.72;;;0.23;100.00
47738;BME280;33502;47.182;27.506;2023-02-02T01:58:28;99590.97;;;0.24;100.00
47738;BME280;33502;47.182;27.506;2023-02-02T02:00:54;99603.91;;;0.28;100.00
47738;BME280;33502;47.182;27.506;2023-02-02T02:03:21;99594.34;;;0.32;100.00
47738;BME280;33502;47.182;27.506;2023-02-02T02:05:50;99599.53;;;0.32;100.00
47738;BME280;33502;47.182;27.506;2023-02-02T02:08:18;99591.81;;;0.26;100.00
47738;BME280;33502;47.182;27.506;2023-02-02T02:10:44;99597.94;;;0.23;100.00
47738;BME280;33502;47.182;27.506;2023-02-02T02:13:09;99593.66;;;0.17;100.00
47738;BME280;33502;47.182;27.506;2023-02-02T02:15:43;99589.34;;;0.13;100.00
47738;BME280;33502;47.182;27.506;2023-02-02T02:29:31;99592.91;;;0.06;100.00
47738;BME280;33502;47.182;27.506;2023-02-02T02:40:12;99599.34;;;-0.27;100.00
47738;BME280;33502;47.182;27.506;2023-02-02T02:42:42;99595.03;;;-0.27;100.00
47738;BME280;33502;47.182;27.506;2023-02-02T02:45:09;99600.16;;;-0.24;100.00
47738;BME280;33502;47.182;27.506;2023-02-02T02:47:36;99596.66;;;-0.18;100.00
47738;BME280;33502;47.182;27.506;2023-02-02T02:50:03;99600.06;;;-0.11;100.00
47738;BME280;33502;47.182;27.506;2023-02-02T02:52:30;99604.38;;;-0.12;100.00
47738;BME280;33502;47.182;27.506;2023-02-02T02:54:56;99603.53;;;-0.12;100.00
47738;BME280;33502;47.182;27.506;2023-02-02T03:03:24;99604.44;;;-0.15;100.00
47738;BME280;33502;47.182;27.506;2023-02-02T03:08:38;99604.47;;;-0.21;100.00
47738;BME280;33502;47.182;27.506;2023-02-02T03:11:05;99607.88;;;-0.14;100.00
47738;BME280;33502;47.182;27.506;2023-02-02T03:13:32;99607.78;;;-0.04;100.00
47738;BME280;33502;47.182;27.506;2023-02-02T03:15:58;99602.44;;;0.09;100.00
47738;BME280;33502;47.182;27.506;2023-02-02T03:18:25;99600.63;;;0.15;100.00
47738;BME280;33502;47.182;27.506;2023-02-02T03:20:51;99596.19;;;0.21;100.00
47738;BME280;33502;47.182;27.506;2023-02-02T03:23:17;99596.09;;;0.30;100.00
47738;BME280;33502;47.182;27.506;2023-02-02T03:25:43;99598.56;;;0.42;100.00
47738;BME280;33502;47.182;27.506;2023-02-02T03:28:08;99596.81;;;0.43;100.00
47738;BME280;33502;47.182;27.506;2023-02-02T03:30:34;99600.28;;;0.42;100.00
47738;BME280;33502;47.182;27.506;2023-02-02T03:33:01;99592.53;;;0.38;100.00
47738;BME280;33502;47.182;27.506;2023-02-02T03:35:26;99594.25;;;0.38;100.00
47738;BME280;33502;47.182;27.506;2023-02-02T03:37:52;99590.81;;;0.36;100.00
47738;BME280;33502;47.182;27.506;2023-02-02T03:40:18;99586.47;;;0.36;100.00
47738;BME280;33502;47.182;27.506;2023-02-02T03:42:44;99589.84;;;0.42;100.00
47738;BME280;33502;47.182;27.506;2023-02-02T03:45:09;99596.78;;;0.44;100.00
47738;BME280;33502;47.182;27.506;2023-02-02T03:47:35;99582.84;;;0.48;100.00
47738;BME280;33502;47.182;27.506;2023-02-02T03:50:01;99597.50;;;0.55;100.00
47738;BME280;33502;47.182;27.506;2023-02-02T03:52:26;99600.03;;;0.60;100.00
47738;BME280;33502;47.182;27.506;2023-02-02T03:54:52;99594.81;;;0.62;100.00
47738;BME280;33502;47.182;27.506;2023-02-02T03:57:17;99599.94;;;0.68;100.00
47738;BME280;33502;47.182;27.506;2023-02-02T03:59:43;99596.38;;;0.73;100.00
47738;BME280;33502;47.182;27.506;2023-02-02T04:02:09;99604.91;;;0.85;100.00
47738;BME280;33502;47.182;27.506;2023-02-02T04:04:34;99586.56;;;0.92;100.00
47738;BME280;33502;47.182;27.506;2023-02-02T04:07:00;99574.34;;;0.96;100.00
47738;BME280;33502;47.182;27.506;2023-02-02T04:09:26;99569.84;;;1.04;100.00
47738;BME280;33502;47.182;27.506;2023-02-02T04:11:52;99584.66;;;1.04;100.00
47738;BME280;33502;47.182;27.506;2023-02-02T04:14:17;99584.66;;;1.02;100.00
47738;BME280;33502;47.182;27.506;2023-02-02T04:16:43;99589.91;;;1.01;100.00
47738;BME280;33502;47.182;27.506;2023-02-02T04:19:08;99589.97;;;0.96;100.00
47738;BME280;33502;47.182;27.506;2023-02-02T04:21:37;99596.84;;;1.02;100.00
47738;BME280;33502;47.182;27.506;2023-02-02T04:24:03;99607.97;;;1.13;100.00
47738;BME280;33502;47.182;27.506;2023-02-02T04:26:28;99601.91;;;1.11;100.00
47738;BME280;33502;47.182;27.506;2023-02-02T04:28:54;99616.75;;;1.07;100.00
47738;BME280;33502;47.182;27.506;2023-02-02T04:31:20;99611.53;;;1.07;100.00
47738;BME280;33502;47.182;27.506;2023-02-02T04:33:46;99601.13;;;1.04;100.00
47738;BME280;33502;47.182;27.506;2023-02-02T04:36:11;99608.09;;;1.04;100.00
47738;BME280;33502;47.182;27.506;2023-02-02T04:38:37;99604.53;;;1.09;100.00
47738;BME280;33502;47.182;27.506;2023-02-02T04:41:10;99605.50;;;1.04;100.00
47738;BME280;33502;47.182;27.506;2023-02-02T04:43:36;99603.03;;;0.94;100.00
47738;BME280;33502;47.182;27.506;2023-02-02T04:46:02;99602.31;;;0.83;100.00
47738;BME280;33502;47.182;27.506;2023-02-02T04:48:28;99603.31;;;0.74;100.00
47738;BME280;33502;47.182;27.506;2023-02-02T04:51:00;99610.44;;;0.62;100.00
47738;BME280;33502;47.182;27.506;2023-02-02T04:53:26;99616.72;;;0.48;100.00
47738;BME280;33502;47.182;27.506;2023-02-02T04:55:52;99612.44;;;0.43;100.00
47738;BME280;33502;47.182;27.506;2023-02-02T04:58:18;99610.78;;;0.37;100.00
47738;BME280;33502;47.182;27.506;2023-02-02T05:00:43;99606.41;;;0.37;100.00
47738;BME280;33502;47.182;27.506;2023-02-02T05:03:09;99611.59;;;0.42;100.00
47738;BME280;33502;47.182;27.506;2023-02-02T05:05:35;99609.81;;;0.44;100.00
47738;BME280;33502;47.182;27.506;2023-02-02T05:08:00;99605.47;;;0.45;100.00
47738;BME280;33502;47.182;27.506;2023-02-02T05:10:26;99606.38;;;0.42;100.00
47738;BME280;33502;47.182;27.506;2023-02-02T05:12:52;99602.03;;;0.39;100.00
47738;BME280;33502;47.182;27.506;2023-02-02T05:15:17;99601.09;;;0.45;100.00
47738;BME280;33502;47.182;27.506;2023-02-02T05:17:45;99603.69;;;0.47;100.00
47738;BME280;33502;47.182;27.506;2023-02-02T05:20:11;99605.47;;;0.45;100.00
47738;BME280;33502;47.182;27.506;2023-02-02T05:22:37;99611.59;;;0.42;100.00
47738;BME280;33502;47.182;27.506;2023-02-02T05:25:03;99609.88;;;0.38;100.00
47738;BME280;33502;47.182;27.506;2023-02-02T05:27:29;99607.34;;;0.33;100.00
47738;BME280;33502;47.182;27.506;2023-02-02T05:29:54;99611.81;;;0.24;100.00
47738;BME280;33502;47.182;27.506;2023-02-02T05:32:20;99604.06;;;0.17;100.00
47738;BME280;33502;47.182;27.506;2023-02-02T05:34:45;99606.78;;;0.08;100.00
47738;BME280;33502;47.182;27.506;2023-02-02T05:37:11;99606.03;;;-0.03;100.00
47738;BME280;33502;47.182;27.506;2023-02-02T05:39:36;99604.44;;;-0.16;100.00
47738;BME280;33502;47.182;27.506;2023-02-02T05:42:02;99595.88;;;-0.26;100.00
47738;BME280;33502;47.182;27.506;2023-02-02T05:44:28;99607.28;;;-0.38;100.00
47738;BME280;33502;47.182;27.506;2023-02-02T05:46:53;99590.84;;;-0.45;100.00
47738;BME280;33502;47.182;27.506;2023-02-02T05:49:19;99602.16;;;-0.50;100.00
47738;BME280;33502;47.182;27.506;2023-02-02T05:51:49;99600.50;;;-0.57;100.00
47738;BME280;33502;47.182;27.506;2023-02-02T05:54:16;99603.13;;;-0.61;100.00
47738;BME280;33502;47.182;27.506;2023-02-02T05:56:48;99603.13;;;-0.59;100.00
47738;BME280;33502;47.182;27.506;2023-02-02T05:59:14;99595.22;;;-0.48;100.00
47738;BME280;33502;47.182;27.506;2023-02-02T06:01:39;99606.34;;;-0.32;100.00
47738;BME280;33502;47.182;27.506;2023-02-02T06:04:05;99606.19;;;-0.17;100.00
47738;BME280;33502;47.182;27.506;2023-02-02T06:06:31;99612.94;;;-0.02;100.00
47738;BME280;33502;47.182;27.506;2023-02-02T06:08:56;99609.13;;;0.27;100.00
47738;BME280;33502;47.182;27.506;2023-02-02T06:11:22;99606.41;;;1.54;100.00
47738;BME280;33502;47.182;27.506;2023-02-02T06:13:47;99606.72;;;3.10;100.00
47738;BME280;33502;47.182;27.506;2023-02-02T06:16:13;99605.81;;;4.44;100.00
47738;BME280;33502;47.182;27.506;2023-02-02T06:18:38;99607.16;;;5.67;100.00
47738;BME280;33502;47.182;27.506;2023-02-02T06:21:05;99602.88;;;6.85;100.00
47738;BME280;33502;47.182;27.506;2023-02-02T06:23:31;99605.50;;;8.34;100.00
47738;BME280;33502;47.182;27.506;2023-02-02T06:25:57;99606.38;;;9.64;100.00
47738;BME280;33502;47.182;27.506;2023-02-02T06:28:23;99605.56;;;10.32;88.92
47738;BME280;33502;47.182;27.506;2023-02-02T06:30:49;99608.47;;;11.08;90.32
47738;BME280;33502;47.182;27.506;2023-02-02T06:33:14;99595.19;;;12.01;83.75
47738;BME280;33502;47.182;27.506;2023-02-02T06:35:40;99604.00;;;12.59;72.66
47738;BME280;33502;47.182;27.506;2023-02-02T06:38:06;99610.59;;;12.95;68.66
47738;BME280;33502;47.182;27.506;2023-02-02T06:40:31;99612.88;;;13.82;73.75
47738;BME280;33502;47.182;27.506;2023-02-02T06:42:57;99603.75;;;14.38;61.17
47738;BME280;33502;47.182;27.506;2023-02-02T06:45:23;99602.78;;;14.64;59.01
47738;BME280;33502;47.182;27.506;2023-02-02T06:47:49;99602.88;;;14.76;61.29
47738;BME280;33502;47.182;27.506;2023-02-02T06:50:15;99599.75;;;14.95;59.45
47738;BME280;33502;47.182;27.506;2023-02-02T06:52:50;99597.66;;;15.11;56.20
47738;BME280;33502;47.182;27.506;2023-02-02T06:55:16;99596.34;;;15.65;57.76
47738;BME280;33502;47.182;27.506;2023-02-02T06:57:42;99597.41;;;15.87;57.55
47738;BME280;33502;47.182;27.506;2023-02-02T07:00:07;99599.94;;;15.77;52.25
47738;BME280;33502;47.182;27.506;2023-02-02T07:02:33;99609.75;;;16.23;54.44
47738;BME280;33502;47.182;27.506;2023-02-02T07:05:00;99604.16;;;16.37;50.96
47738;BME280;33502;47.182;27.506;2023-02-02T07:07:26;99600.81;;;15.89;49.46
47738;BME280;33502;47.182;27.506;2023-02-02T07:09:51;99607.69;;;15.80;52.18
47738;BME280;33502;47.182;27.506;2023-02-02T07:12:17;99604.25;;;16.02;49.71
47738;BME280;33502;47.182;27.506;2023-02-02T07:14:43;99608.09;;;15.87;48.53
47738;BME280;33502;47.182;27.506;2023-02-02T07:17:09;99608.63;;;16.14;48.97
47738;BME280;33502;47.182;27.506;2023-02-02T07:19:35;99597.88;;;16.61;47.00
47738;BME280;33502;47.182;27.506;2023-02-02T07:22:00;99602.53;;;17.25;47.31
47738;BME280;33502;47.182;27.506;2023-02-02T07:24:26;99604.34;;;17.68;41.97
47738;BME280;33502;47.182;27.506;2023-02-02T07:26:52;99594.72;;;18.19;41.18
47738;BME280;33502;47.182;27.506;2023-02-02T07:29:17;99600.28;;;18.98;39.99
47738;BME280;33502;47.182;27.506;2023-02-02T07:31:43;99599.09;;;19.22;38.35
47738;BME280;33502;47.182;27.506;2023-02-02T07:34:09;99600.75;;;18.73;37.11
47738;BME280;33502;47.182;27.506;2023-02-02T07:36:35;99600.44;;;18.35;39.30
47738;BME280;33502;47.182;27.506;2023-02-02T07:39:01;99609.56;;;17.37;38.93
47738;BME280;33502;47.182;27.506;2023-02-02T07:41:29;99602.47;;;18.22;39.01
47738;BME280;33502;47.182;27.506;2023-02-02T07:43:54;99604.84;;;19.17;37.18
47738;BME280;33502;47.182;27.506;2023-02-02T07:46:20;99594.22;;;19.06;35.83
47738;BME280;33502;47.182;27.506;2023-02-02T07:48:45;99595.59;;;18.29;36.53
47738;BME280;33502;47.182;27.506;2023-02-02T07:51:12;99603.56;;;17.77;36.74
47738;BME280;33502;47.182;27.506;2023-02-02T07:53:38;99593.56;;;17.79;37.22
47738;BME280;33502;47.182;27.506;2023-02-02T07:58:32;99590.00;;;20.21;35.02
47738;BME280;33502;47.182;27.506;2023-02-02T08:01:02;99589.53;;;20.45;33.38
47738;BME280;33502;47.182;27.506;2023-02-02T08:03:27;99592.56;;;20.22;32.93
47738;BME280;33502;47.182;27.506;2023-02-02T08:05:53;99589.75;;;20.14;33.00
47738;BME280;33502;47.182;27.506;2023-02-02T08:08:19;99581.41;;;20.64;31.98
47738;BME280;33502;47.182;27.506;2023-02-02T08:10:48;99584.63;;;21.41;32.03
47738;BME280;33502;47.182;27.506;2023-02-02T08:13:13;99588.88;;;20.98;31.88
47738;BME280;33502;47.182;27.506;2023-02-02T08:15:39;99589.94;;;21.51;30.67
47738;BME280;33502;47.182;27.506;2023-02-02T08:18:05;99582.69;;;21.87;30.47
47738;BME280;33502;47.182;27.506;2023-02-02T08:20:30;99587.78;;;21.90;29.48
47738;BME280;33502;47.182;27.506;2023-02-02T08:22:56;99589.66;;;20.43;30.36
47738;BME280;33502;47.182;27.506;2023-02-02T08:25:21;99587.16;;;18.34;32.46
47738;BME280;33502;47.182;27.506;2023-02-02T08:27:47;99592.88;;;16.79;35.11
47738;BME280;33502;47.182;27.506;2023-02-02T08:30:13;99586.38;;;15.56;37.28
47738;BME280;33502;47.182;27.506;2023-02-02T08:32:39;99596.81;;;14.61;39.28
47738;BME280;33502;47.182;27.506;2023-02-02T08:35:05;99600.94;;;13.75;40.59
47738;BME280;33502;47.182;27.506;2023-02-02T08:37:30;99598.88;;;11.82;44.01
47738;BME280;33502;47.182;27.506;2023-02-02T08:39:56;99602.81;;;10.67;47.83
47738;BME280;33502;47.182;27.506;2023-02-02T08:42:21;99613.44;;;9.81;51.24
47738;BME280;33502;47.182;27.506;2023-02-02T08:44:47;99601.72;;;9.52;52.57
47738;BME280;33502;47.182;27.506;2023-02-02T08:47:13;99599.25;;;10.17;52.31
47738;BME280;33502;47.182;27.506;2023-02-02T08:49:39;99612.59;;;9.80;52.63
47738;BME280;33502;47.182;27.506;2023-02-02T08:52:06;99605.75;;;9.76;52.98
47738;BME280;33502;47.182;27.506;2023-02-02T08:54:32;99605.44;;;9.83;53.54
47738;BME280;33502;47.182;27.506;2023-02-02T08:56:58;99603.47;;;9.51;54.32
47738;BME280;33502;47.182;27.506;2023-02-02T08:59:23;99616.97;;;9.28;55.52
47738;BME280;33502;47.182;27.506;2023-02-02T09:01:49;99612.69;;;8.89;55.98
47738;BME280;33502;47.182;27.506;2023-02-02T09:04:14;99608.44;;;9.04;57.01
47738;BME280;33502;47.182;27.506;2023-02-02T09:06:40;99604.50;;;9.12;56.45
47738;BME280;33502;47.182;27.506;2023-02-02T09:09:07;99606.38;;;9.10;57.44
47738;BME280;33502;47.182;27.506;2023-02-02T09:11:33;99607.47;;;8.87;57.67
47738;BME280;33502;47.182;27.506;2023-02-02T09:13:59;99605.91;;;8.45;57.44
47738;BME280;33502;47.182;27.506;2023-02-02T09:16:27;99600.69;;;8.23;58.90
47738;BME280;33502;47.182;27.506;2023-02-02T09:18:53;99600.19;;;8.15;58.36
47738;BME280;33502;47.182;27.506;2023-02-02T09:21:19;99597.97;;;8.45;59.95
47738;BME280;33502;47.182;27.506;2023-02-02T09:23:45;99593.06;;;9.31;57.25
47738;BME280;33502;47.182;27.506;2023-02-02T09:26:21;99589.16;;;10.08;55.96
47738;BME280;33502;47.182;27.506;2023-02-02T09:28:48;99576.03;;;10.22;52.82
47738;BME280;33502;47.182;27.506;2023-02-02T09:31:14;99591.28;;;9.84;52.14
47738;BME280;33502;47.182;27.506;2023-02-02T09:33:40;99584.34;;;9.29;53.42
47738;BME280;33502;47.182;27.506;2023-02-02T09:36:07;99585.00;;;8.78;54.09
47738;BME280;33502;47.182;27.506;2023-02-02T09:38:33;99574.16;;;8.47;55.16
47738;BME280;33502;47.182;27.506;2023-02-02T09:40:59;99575.22;;;8.42;57.35
47738;BME280;33502;47.182;27.506;2023-02-02T09:48:45;99566.81;;;8.72;57.56
47738;BME280;33502;47.182;27.506;2023-02-02T09:51:16;99562.25;;;9.12;53.94
47738;BME280;33502;47.182;27.506;2023-02-02T09:53:45;99563.91;;;8.96;53.98
47738;BME280;33502;47.182;27.506;2023-02-02T09:56:22;99566.38;;;9.18;54.07
47738;BME280;33502;47.182;27.506;2023-02-02T09:58:49;99561.44;;;8.93;55.52
47738;BME280;33502;47.182;27.506;2023-02-02T10:01:19;99570.47;;;8.70;55.94
47738;BME280;33502;47.182;27.506;2023-02-02T10:03:53;99565.69;;;8.38;57.76
47738;BME280;33502;47.182;27.506;2023-02-02T10:06:32;99556.50;;;8.28;59.41
47738;BME280;33502;47.182;27.506;2023-02-02T10:14:17;99566.69;;;8.17;60.04
47738;BME280;33502;47.182;27.506;2023-02-02T10:16:45;99565.91;;;8.34;59.70
47738;BME280;33502;47.182;27.506;2023-02-02T10:19:12;99560.41;;;9.32;57.65
47738;BME280;33502;47.182;27.506;2023-02-02T10:21:59;99562.28;;;10.33;54.21
47738;BME280;33502;47.182;27.506;2023-02-02T10:24:28;99547.53;;;11.39;50.97
47738;BME280;33502;47.182;27.506;2023-02-02T10:26:59;99546.16;;;11.92;49.87
47738;BME280;33502;47.182;27.506;2023-02-02T10:40:13;99543.38;;;10.72;49.20
47738;BME280;33502;47.182;27.506;2023-02-02T10:45:12;99553.25;;;10.19;49.58
47738;BME280;33502;47.182;27.506;2023-02-02T10:47:40;99545.63;;;10.31;50.19
47738;BME280;33502;47.182;27.506;2023-02-02T10:52:32;99537.47;;;10.18;51.12
47738;BME280;33502;47.182;27.506;2023-02-02T11:02:53;99538.50;;;8.76;56.08
47738;BME280;33502;47.182;27.506;2023-02-02T11:05:21;99541.72;;;8.45;57.65
47738;BME280;33502;47.182;27.506;2023-02-02T11:10:59;99532.66;;;7.92;61.72
47738;BME280;33502;47.182;27.506;2023-02-02T11:13:35;99528.84;;;7.78;65.35
47738;BME280;33502;47.182;27.506;2023-02-02T11:18:40;99539.38;;;7.37;68.36
47738;BME280;33502;47.182;27.506;2023-02-02T11:29:14;99542.53;;;7.25;74.57
47738;BME280;33502;47.182;27.506;2023-02-02T11:31:40;99544.19;;;7.69;72.54
47738;BME280;33502;47.182;27.506;2023-02-02T11:34:14;99538.16;;;8.25;70.36
47738;BME280;33502;47.182;27.506;2023-02-02T11:36:47;99537.09;;;8.86;68.82
47738;BME280;33502;47.182;27.506;2023-02-02T11:39:21;99534.38;;;9.76;63.53
47738;BME280;33502;47.182;27.506;2023-02-02T11:41:47;99535.22;;;9.77;61.09
47738;BME280;33502;47.182;27.506;2023-02-02T11:44:25;99531.06;;;9.55;63.06
47738;BME280;33502;47.182;27.506;2023-02-02T11:46:51;99531.81;;;9.40;62.60
47738;BME280;33502;47.182;27.506;2023-02-02T11:49:18;99541.25;;;9.09;64.56
47738;BME280;33502;47.182;27.506;2023-02-02T11:51:55;99536.50;;;8.81;66.12
47738;BME280;33502;47.182;27.506;2023-02-02T11:54:24;99542.13;;;8.35;66.81
47738;BME280;33502;47.182;27.506;2023-02-02T11:56:52;99542.00;;;7.99;70.53
47738;BME280;33502;47.182;27.506;2023-02-02T12:02:12;99545.28;;;8.62;71.00
47738;BME280;33502;47.182;27.506;2023-02-02T12:04:45;99545.50;;;9.31;67.75
47738;BME280;33502;47.182;27.506;2023-02-02T12:07:23;99552.59;;;9.48;65.60
47738;BME280;33502;47.182;27.506;2023-02-02T12:09:49;99550.94;;;9.28;66.73
47738;BME280;33502;47.182;27.506;2023-02-02T12:14:49;99546.22;;;9.34;68.59
47738;BME280;33502;47.182;27.506;2023-02-02T12:17:38;99554.75;;;9.39;68.43
47738;BME280;33502;47.182;27.506;2023-02-02T12:22:39;99560.16;;;8.63;72.52
47738;BME280;33502;47.182;27.506;2023-02-02T12:33:12;99563.28;;;8.34;72.84
47738;BME280;33502;47.182;27.506;2023-02-02T12:53:40;99570.75;;;6.08;97.70
47738;BME280;33502;47.182;27.506;2023-02-02T13:08:49;99582.03;;;5.60;100.00
47738;BME280;33502;47.182;27.506;2023-02-02T13:11:19;99573.56;;;5.52;100.00
47738;BME280;33502;47.182;27.506;2023-02-02T13:13:56;99582.75;;;5.38;100.00
47738;BME280;33502;47.182;27.506;2023-02-02T13:16:23;99578.34;;;5.39;100.00
47738;BME280;33502;47.182;27.506;2023-02-02T13:18:52;99580.09;;;5.40;100.00
47738;BME280;33502;47.182;27.506;2023-02-02T13:21:20;99579.22;;;5.39;100.00
47738;BME280;33502;47.182;27.506;2023-02-02T13:23:50;99578.25;;;5.42;100.00
47738;BME280;33502;47.182;27.506;2023-02-02T13:26:20;99583.47;;;5.43;100.00
47738;BME280;33502;47.182;27.506;2023-02-02T13:28:54;99585.06;;;5.47;100.00
47738;BME280;33502;47.182;27.506;2023-02-02T13:31:33;99578.84;;;5.50;100.00
47738;BME280;33502;47.182;27.506;2023-02-02T13:34:23;99587.47;;;5.54;100.00
47738;BME280;33502;47.182;27.506;2023-02-02T13:36:56;99588.38;;;5.54;100.00
47738;BME280;33502;47.182;27.506;2023-02-02T13:40:14;99586.91;;;5.45;100.00
47738;BME280;33502;47.182;27.506;2023-02-02T13:42:25;99582.72;;;5.40;100.00
47738;BME280;33502;47.182;27.506;2023-02-02T13:44:55;99591.66;;;5.34;100.00
47738;BME280;33502;47.182;27.506;2023-02-02T13:47:25;99591.91;;;5.26;100.00
47738;BME280;33502;47.182;27.506;2023-02-02T13:49:55;99599.16;;;5.18;100.00
47738;BME280;33502;47.182;27.506;2023-02-02T14:02:57;99603.19;;;5.02;100.00
47738;BME280;33502;47.182;27.506;2023-02-02T14:05:28;99603.38;;;4.96;100.00
47738;BME280;33502;47.182;27.506;2023-02-02T14:07:55;99602.56;;;4.94;100.00
47738;BME280;33502;47.182;27.506;2023-02-02T14:10:23;99608.00;;;4.87;100.00
47738;BME280;33502;47.182;27.506;2023-02-02T14:12:49;99621.28;;;4.81;100.00
47738;BME280;33502;47.182;27.506;2023-02-02T14:15:16;99619.88;;;4.71;100.00
47738;BME280;33502;47.182;27.506;2023-02-02T14:20:52;99617.66;;;4.57;100.00
47738;BME280;33502;47.182;27.506;2023-02-02T14:22:53;99620.63;;;4.45;100.00
47738;BME280;33502;47.182;27.506;2023-02-02T14:27:55;99627.47;;;4.19;100.00
47738;BME280;33502;47.182;27.506;2023-02-02T14:30:23;99625.91;;;4.12;100.00
47738;BME280;33502;47.182;27.506;2023-02-02T14:32:49;99627.75;;;4.08;100.00
47738;BME280;33502;47.182;27.506;2023-02-02T14:37:52;99635.84;;;3.99;100.00
47738;BME280;33502;47.182;27.506;2023-02-02T14:48:32;99649.03;;;3.63;100.00
47738;BME280;33502;47.182;27.506;2023-02-02T14:50:59;99644.94;;;3.51;100.00
47738;BME280;33502;47.182;27.506;2023-02-02T14:53:26;99644.31;;;3.42;100.00
47738;BME280;33502;47.182;27.506;2023-02-02T14:56:03;99649.00;;;3.29;100.00
47738;BME280;33502;47.182;27.506;2023-02-02T14:58:34;99648.38;;;3.18;100.00
47738;BME280;33502;47.182;27.506;2023-02-02T15:06:30;99663.06;;;2.84;100.00
47738;BME280;33502;47.182;27.506;2023-02-02T15:14:22;99647.13;;;2.56;100.00
47738;BME280;33502;47.182;27.506;2023-02-02T15:16:49;99656.00;;;2.47;100.00
47738;BME280;33502;47.182;27.506;2023-02-02T15:19:29;99658.84;;;2.35;100.00
47738;BME280;33502;47.182;27.506;2023-02-02T15:21:59;99659.97;;;2.23;100.00
47738;BME280;33502;47.182;27.506;2023-02-02T15:24:27;99662.84;;;2.09;100.00
47738;BME280;33502;47.182;27.506;2023-02-02T15:26:54;99666.50;;;2.01;100.00
47738;BME280;33502;47.182;27.506;2023-02-02T15:29:30;99668.38;;;1.91;100.00
47738;BME280;33502;47.182;27.506;2023-02-02T15:31:56;99665.91;;;1.85;100.00
47738;BME280;33502;47.182;27.506;2023-02-02T15:37:04;99684.31;;;1.77;100.00
47738;BME280;33502;47.182;27.506;2023-02-02T15:41:59;99686.19;;;1.69;100.00